Time;durP1;ratioP1;P1;durP2;ratioP2;P2;SDS_P1;SDS_P2;PMS_P1;PMS_P2;Temp;Humidity;BMP_temperature;BMP_pressure;BME280_temperature;BME280_humidity;BME280_pressure;Samples;Min_cycle;Max_cycle;Signal;HPM_P1;HPM_P2
2023/07/06 00:01:51;;;;;;;;;;;;;;;23.44;73.94;96924.94;626947;226;64796;-61
2023/07/06 00:04:20;;;;;;;;;;;;;;;23.45;73.93;96926.53;626955;226;65106;-61
2023/07/06 00:06:47;;;;;;;;;;;;;;;23.43;74.02;96907.23;626953;226;66512;-60
2023/07/06 00:09:15;;;;;;;;;;;;;;;23.44;73.95;96908.85;626969;226;66965;-60
2023/07/06 00:11:44;;;;;;;;;;;;;;;23.43;73.91;96907.23;626930;226;65056;-60
2023/07/06 00:14:12;;;;;;;;;;;;;;;23.43;73.93;96901.88;624930;226;67269;-61
2023/07/06 00:16:41;;;;;;;;;;;;;;;23.43;73.95;96904.55;624699;227;66811;-61
2023/07/06 00:19:09;;;;;;;;;;;;;;;23.43;73.91;96899.98;624680;227;65138;-61
2023/07/06 00:21:37;;;;;;;;;;;;;;;23.43;73.93;96902.67;624687;227;66871;-61
2023/07/06 00:24:05;;;;;;;;;;;;;;;23.43;73.88;96896.52;624697;227;66862;-61
2023/07/06 00:26:33;;;;;;;;;;;;;;;23.43;73.89;96888.47;624596;227;65037;-61
2023/07/06 00:29:00;;;;;;;;;;;;;;;23.43;73.93;96893.83;624687;227;67991;-61
2023/07/06 00:31:40;;;;;;;;;;;;;;;23.43;73.93;96893.83;624654;227;67594;-61
2023/07/06 00:34:04;;;;;;;;;;;;;;;23.43;73.92;96886.58;624539;225;64872;-60
2023/07/06 00:36:32;;;;;;;;;;;;;;;23.42;73.88;96886.88;624636;227;67633;-60
2023/07/06 00:39:02;;;;;;;;;;;;;;;23.43;73.91;96891.14;624648;227;67038;-60
2023/07/06 00:41:29;;;;;;;;;;;;;;;23.43;73.89;96893.83;624650;227;65111;-61
2023/07/06 00:43:57;;;;;;;;;;;;;;;23.42;73.91;96879.62;624674;227;65084;-61
2023/07/06 00:46:36;;;;;;;;;;;;;;;23.42;73.87;96887.67;624605;227;67031;-60
2023/07/06 00:49:01;;;;;;;;;;;;;;;23.44;73.88;96887.39;624598;225;62638;-61
2023/07/06 00:51:33;;;;;;;;;;;;;;;23.43;73.90;96881.21;624636;227;67180;-61
2023/07/06 00:54:02;;;;;;;;;;;;;;;23.43;73.89;96880.42;624472;225;64502;-61
2023/07/06 00:56:32;;;;;;;;;;;;;;;23.43;73.88;96891.14;624640;227;64750;-60
2023/07/06 00:59:05;;;;;;;;;;;;;;;23.42;73.86;96890.36;624674;227;64853;-61
2023/07/06 01:01:30;;;;;;;;;;;;;;;23.43;73.92;96891.14;624529;225;67434;-61
2023/07/06 01:03:58;;;;;;;;;;;;;;;23.42;73.89;96895.72;624655;227;65008;-61
2023/07/06 01:06:36;;;;;;;;;;;;;;;23.41;73.88;96894.14;624613;227;67217;-61
2023/07/06 01:09:07;;;;;;;;;;;;;;;23.43;73.87;96893.83;624680;227;64839;-63
2023/07/06 01:11:37;;;;;;;;;;;;;;;23.43;73.88;96893.83;624669;226;46269;-63
2023/07/06 01:14:04;;;;;;;;;;;;;;;23.41;73.89;96894.14;626476;226;67274;-63
2023/07/06 01:16:37;;;;;;;;;;;;;;;23.41;73.87;96886.09;626896;226;66928;-63
2023/07/06 01:19:24;;;;;;;;;;;;;;;23.42;73.86;96884.99;626899;225;63721;-63
2023/07/06 01:21:59;;;;;;;;;;;;;;;23.42;73.88;96878.84;626520;225;66822;-62
2023/07/06 01:24:29;;;;;;;;;;;;;;;23.42;73.87;96884.20;626893;226;64764;-63
2023/07/06 01:26:58;;;;;;;;;;;;;;;23.41;73.86;96883.41;626611;225;65020;-63
2023/07/06 01:29:28;;;;;;;;;;;;;;;23.41;73.87;96877.25;626933;226;67299;-62
2023/07/06 01:31:57;;;;;;;;;;;;;;;23.41;73.88;96879.94;626647;225;67000;-62
2023/07/06 01:34:44;;;;;;;;;;;;;;;23.42;73.87;96884.20;626833;225;64832;-63
2023/07/06 01:37:14;;;;;;;;;;;;;;;23.41;73.88;96885.30;626857;225;64577;-62
2023/07/06 01:39:42;;;;;;;;;;;;;;;23.41;73.88;96887.98;626910;226;65572;-62
2023/07/06 01:42:14;;;;;;;;;;;;;;;23.41;73.87;96887.98;626931;226;62843;-63
2023/07/06 01:44:46;;;;;;;;;;;;;;;23.41;73.86;96880.73;626953;226;64319;-63
2023/07/06 01:47:14;;;;;;;;;;;;;;;23.40;73.86;96881.80;626924;226;66876;-62
2023/07/06 01:49:42;;;;;;;;;;;;;;;23.41;73.88;96874.57;626933;226;62985;-63
2023/07/06 01:52:12;;;;;;;;;;;;;;;23.41;73.88;96877.25;626886;226;64496;-63
2023/07/06 01:54:41;;;;;;;;;;;;;;;23.41;73.86;96885.30;622808;226;68473;-63
2023/07/06 01:57:15;;;;;;;;;;;;;;;23.42;73.84;96876.16;626984;226;46190;-63
2023/07/06 01:59:46;;;;;;;;;;;;;;;23.40;73.83;96876.43;626688;225;64463;-64
2023/07/06 02:02:14;;;;;;;;;;;;;;;23.41;73.83;96880.73;626900;225;66421;-64
2023/07/06 02:04:43;;;;;;;;;;;;;;;23.40;73.83;96871.06;626902;226;65261;-64
2023/07/06 02:07:13;;;;;;;;;;;;;;;23.41;73.81;96866.53;626904;226;67258;-64
2023/07/06 02:09:42;;;;;;;;;;;;;;;23.41;73.83;96866.53;626938;226;66874;-64
2023/07/06 02:12:12;;;;;;;;;;;;;;;23.42;73.85;96865.43;626647;225;62749;-64
2023/07/06 02:14:42;;;;;;;;;;;;;;;23.41;73.81;96858.48;624660;227;67080;-64
2023/07/06 02:17:10;;;;;;;;;;;;;;;23.41;73.80;96858.48;624495;225;67207;-61
2023/07/06 02:19:38;;;;;;;;;;;;;;;23.41;73.82;96858.48;624651;227;64875;-62
2023/07/06 02:22:08;;;;;;;;;;;;;;;23.40;73.82;96857.66;624643;227;64850;-62
2023/07/06 02:24:35;;;;;;;;;;;;;;;23.41;73.82;96858.48;624656;227;66945;-63
2023/07/06 02:27:05;;;;;;;;;;;;;;;23.41;73.79;96861.16;624642;227;65026;-63
2023/07/06 02:29:33;;;;;;;;;;;;;;;23.41;73.82;96858.48;624624;227;67204;-63
2023/07/06 02:32:00;;;;;;;;;;;;;;;23.40;73.78;96854.98;624687;227;64883;-63
2023/07/06 02:34:28;;;;;;;;;;;;;;;23.40;73.79;96851.50;624674;227;62721;-62
2023/07/06 02:36:56;;;;;;;;;;;;;;;23.41;73.77;96855.80;624663;227;66736;-63
2023/07/06 02:39:24;;;;;;;;;;;;;;;23.40;73.79;96849.61;624659;227;67078;-62
2023/07/06 02:41:53;;;;;;;;;;;;;;;23.40;73.78;96854.19;624647;227;62983;-62
2023/07/06 02:44:22;;;;;;;;;;;;;;;23.41;73.80;96850.44;624673;227;67498;-63
2023/07/06 02:46:49;;;;;;;;;;;;;;;23.41;73.77;96848.55;624656;227;64692;-62
2023/07/06 02:49:17;;;;;;;;;;;;;;;23.40;73.77;96854.19;624690;227;62851;-62
2023/07/06 02:51:46;;;;;;;;;;;;;;;23.40;73.75;96849.61;624668;227;65125;-62
2023/07/06 02:54:17;;;;;;;;;;;;;;;23.40;73.74;96846.14;624680;227;64883;-62
2023/07/06 02:56:45;;;;;;;;;;;;;;;23.41;73.76;96845.07;624640;227;66116;-63
2023/07/06 02:59:13;;;;;;;;;;;;;;;23.41;73.75;96839.71;624609;227;67210;-63
2023/07/06 03:01:40;;;;;;;;;;;;;;;23.40;73.74;96835.41;624664;227;66708;-63
2023/07/06 03:04:11;;;;;;;;;;;;;;;23.40;73.73;96838.09;624684;227;65179;-61
2023/07/06 03:06:39;;;;;;;;;;;;;;;23.41;73.75;96839.71;624637;227;65820;-62
2023/07/06 03:09:08;;;;;;;;;;;;;;;23.41;73.75;96839.71;624650;227;64903;-62
2023/07/06 03:11:36;;;;;;;;;;;;;;;23.40;73.74;96844.25;624659;227;62931;-61
2023/07/06 03:14:04;;;;;;;;;;;;;;;23.40;73.72;96838.89;626501;226;67062;-62
2023/07/06 03:16:41;;;;;;;;;;;;;;;23.40;73.71;96832.73;626960;226;67729;-62
2023/07/06 03:19:13;;;;;;;;;;;;;;;23.40;73.69;96838.09;626824;226;64863;-62
2023/07/06 03:21:40;;;;;;;;;;;;;;;23.40;73.72;96835.41;626920;226;66955;-63
2023/07/06 03:24:08;;;;;;;;;;;;;;;23.39;73.70;96831.16;626958;226;64655;-62
2023/07/06 03:26:36;;;;;;;;;;;;;;;23.38;73.68;96830.36;626931;226;62755;-63
2023/07/06 03:29:05;;;;;;;;;;;;;;;23.39;73.70;96826.58;626940;226;64869;-62
2023/07/06 03:31:33;;;;;;;;;;;;;;;23.39;73.70;96825.78;626930;226;65213;-63
2023/07/06 03:34:01;;;;;;;;;;;;;;;23.40;73.67;96824.69;626894;226;65939;-62
2023/07/06 03:36:28;;;;;;;;;;;;;;;23.39;73.68;96825.78;626942;226;67191;-62
2023/07/06 03:38:57;;;;;;;;;;;;;;;23.39;73.68;96820.42;626953;226;66989;-62
2023/07/06 03:41:24;;;;;;;;;;;;;;;23.39;73.67;96815.06;626918;226;62658;-63
2023/07/06 03:43:56;;;;;;;;;;;;;;;23.39;73.65;96821.22;626952;226;64893;-62
2023/07/06 03:46:21;;;;;;;;;;;;;;;23.40;73.65;96808.59;626840;225;66888;-63
2023/07/06 03:48:48;;;;;;;;;;;;;;;23.39;73.64;96821.22;626918;226;65734;-62
2023/07/06 03:51:16;;;;;;;;;;;;;;;23.39;73.66;96815.06;626955;226;66960;-63
2023/07/06 03:53:47;;;;;;;;;;;;;;;23.39;73.65;96817.74;626938;226;64893;-63
2023/07/06 03:56:13;;;;;;;;;;;;;;;23.39;73.64;96805.13;626858;225;65099;-63
2023/07/06 03:58:42;;;;;;;;;;;;;;;23.38;73.63;96813.45;626948;226;67431;-62
2023/07/06 04:01:10;;;;;;;;;;;;;;;23.38;73.66;96814.27;626895;226;66925;-63
2023/07/06 04:03:37;;;;;;;;;;;;;;;23.38;73.62;96811.59;626938;226;65124;-63
2023/07/06 04:06:05;;;;;;;;;;;;;;;23.38;73.60;96814.27;626927;226;66888;-63
2023/07/06 04:08:32;;;;;;;;;;;;;;;23.39;73.62;96812.38;626933;226;67003;-63
2023/07/06 04:11:00;;;;;;;;;;;;;;;23.39;73.62;96810.48;626961;226;65048;-63
2023/07/06 04:13:29;;;;;;;;;;;;;;;23.38;73.59;96805.41;626935;226;66893;-63
2023/07/06 04:15:56;;;;;;;;;;;;;;;23.39;73.57;96815.06;626935;226;64727;-63
2023/07/06 04:18:26;;;;;;;;;;;;;;;23.39;73.57;96825.78;626969;226;63793;-63
2023/07/06 04:20:54;;;;;;;;;;;;;;;23.39;73.57;96820.42;626925;226;64659;-63
2023/07/06 04:23:22;;;;;;;;;;;;;;;23.38;73.59;96825.00;626963;226;66801;-63
2023/07/06 04:25:49;;;;;;;;;;;;;;;23.39;73.59;96825.78;626960;226;65008;-63
2023/07/06 04:28:17;;;;;;;;;;;;;;;23.38;73.59;96825.00;626880;226;66940;-63
2023/07/06 04:30:45;;;;;;;;;;;;;;;23.38;73.58;96827.67;626981;226;66816;-63
2023/07/06 04:33:14;;;;;;;;;;;;;;;23.39;73.57;96833.83;626953;226;65112;-63
2023/07/06 04:35:42;;;;;;;;;;;;;;;23.38;73.57;96837.58;626705;225;64499;-63
2023/07/06 04:38:15;;;;;;;;;;;;;;;23.39;73.56;96841.88;626951;226;64835;-63
2023/07/06 04:40:41;;;;;;;;;;;;;;;23.39;73.57;96839.20;626728;225;62920;-63
2023/07/06 04:43:10;;;;;;;;;;;;;;;23.38;73.57;96829.54;626921;226;67232;-62
2023/07/06 04:45:38;;;;;;;;;;;;;;;23.38;73.55;96840.27;626854;225;65102;-62
2023/07/06 04:48:06;;;;;;;;;;;;;;;23.38;73.55;96848.31;626938;226;65030;-62
2023/07/06 04:50:37;;;;;;;;;;;;;;;23.38;73.57;96840.27;626920;226;67234;-62
2023/07/06 04:53:02;;;;;;;;;;;;;;;23.38;73.57;96845.63;626882;225;64743;-62
2023/07/06 04:55:31;;;;;;;;;;;;;;;23.38;73.54;96843.77;626905;226;62894;-62
2023/07/06 04:58:00;;;;;;;;;;;;;;;23.37;73.56;96844.84;626904;226;65027;-63
2023/07/06 05:00:32;;;;;;;;;;;;;;;23.38;73.57;96845.63;626932;226;67124;-63
2023/07/06 05:03:02;;;;;;;;;;;;;;;23.38;73.56;96853.67;626927;226;65104;-62
2023/07/06 05:05:36;;;;;;;;;;;;;;;23.37;73.55;96852.87;626932;226;66872;-62
2023/07/06 05:08:05;;;;;;;;;;;;;;;23.37;73.55;96855.56;626839;225;69704;-64
2023/07/06 05:10:34;;;;;;;;;;;;;;;23.38;73.58;96856.35;626905;226;63796;-64
2023/07/06 05:13:03;;;;;;;;;;;;;;;23.38;73.58;96853.67;626925;226;67406;-64
2023/07/06 05:15:31;;;;;;;;;;;;;;;23.36;73.56;96853.98;626932;226;64951;-64
2023/07/06 05:18:01;;;;;;;;;;;;;;;23.38;73.56;96859.03;626883;226;65193;-62
2023/07/06 05:20:31;;;;;;;;;;;;;;;23.37;73.56;96860.92;626859;226;67246;-64
2023/07/06 05:22:58;;;;;;;;;;;;;;;23.38;73.59;96862.53;626889;226;66830;-64
2023/07/06 05:25:26;;;;;;;;;;;;;;;23.38;73.56;96856.35;626921;226;65014;-64
2023/07/06 05:27:54;;;;;;;;;;;;;;;23.37;73.57;96854.77;626936;226;64979;-64
2023/07/06 05:30:21;;;;;;;;;;;;;;;23.38;73.58;96856.35;626885;226;65154;-64
2023/07/06 05:32:49;;;;;;;;;;;;;;;23.37;73.59;96865.50;626838;226;62987;-62
2023/07/06 05:35:17;;;;;;;;;;;;;;;23.37;73.58;96860.13;626842;226;67162;-61
2023/07/06 05:37:44;;;;;;;;;;;;;;;23.38;73.58;96867.08;626895;226;67093;-62
2023/07/06 05:40:12;;;;;;;;;;;;;;;23.37;73.59;96863.61;626915;226;62745;-64
2023/07/06 05:42:40;;;;;;;;;;;;;;;23.37;73.59;96868.17;626871;226;67208;-64
2023/07/06 05:45:08;;;;;;;;;;;;;;;23.37;73.60;96870.86;626871;226;67047;-64
2023/07/06 05:47:38;;;;;;;;;;;;;;;23.37;73.58;96866.28;626899;226;44967;-64
2023/07/06 05:50:06;;;;;;;;;;;;;;;23.37;73.57;96860.13;626884;226;64993;-64
2023/07/06 05:52:33;;;;;;;;;;;;;;;23.37;73.60;96863.61;626963;226;66925;-64
2023/07/06 05:55:01;;;;;;;;;;;;;;;23.37;73.58;96866.28;626781;226;62987;-64
2023/07/06 05:57:28;;;;;;;;;;;;;;;23.36;73.61;96866.59;626828;226;64975;-64
2023/07/06 05:59:56;;;;;;;;;;;;;;;23.37;73.58;96863.61;626819;226;67393;-66
2023/07/06 06:02:23;;;;;;;;;;;;;;;23.37;73.62;96852.09;626866;226;65025;-66
2023/07/06 06:04:51;;;;;;;;;;;;;;;23.36;73.60;96859.34;626942;226;67156;-62
2023/07/06 06:07:19;;;;;;;;;;;;;;;23.38;73.63;96856.35;626891;226;66947;-62
2023/07/06 06:09:50;;;;;;;;;;;;;;;23.37;73.60;96858.24;626880;226;62915;-63
2023/07/06 06:12:22;;;;;;;;;;;;;;;23.36;73.75;96858.55;626851;226;67209;-67
2023/07/06 06:14:52;;;;;;;;;;;;;;;23.36;73.99;96853.98;626751;225;66947;-67
2023/07/06 06:17:20;;;;;;;;;;;;;;;23.37;74.20;96858.24;626893;226;64863;-64
2023/07/06 06:19:48;;;;;;;;;;;;;;;23.37;73.90;96855.56;626995;226;64625;-67
2023/07/06 06:22:16;;;;;;;;;;;;;;;23.38;73.80;96862.53;626914;226;67075;-65
2023/07/06 06:24:44;;;;;;;;;;;;;;;23.38;73.96;96857.17;626858;226;63802;-64
2023/07/06 06:27:14;;;;;;;;;;;;;;;23.39;73.84;96850.71;626874;226;65080;-59
2023/07/06 06:29:42;;;;;;;;;;;;;;;23.40;73.96;96854.19;626882;226;66844;-59
2023/07/06 06:32:10;;;;;;;;;;;;;;;23.40;73.87;96854.19;626939;226;65092;-59
2023/07/06 06:34:39;;;;;;;;;;;;;;;23.39;73.88;96850.71;626867;226;67210;-62
2023/07/06 06:37:08;;;;;;;;;;;;;;;23.41;73.97;96863.84;626893;226;67026;-66
2023/07/06 06:39:35;;;;;;;;;;;;;;;23.41;74.02;96855.80;626861;226;63804;-62
2023/07/06 06:42:04;;;;;;;;;;;;;;;23.42;74.04;96849.34;626906;226;67160;-62
2023/07/06 06:44:32;;;;;;;;;;;;;;;23.42;74.24;96849.34;626947;226;67101;-62
2023/07/06 06:47:04;;;;;;;;;;;;;;;23.42;74.01;96843.97;626876;226;64986;-62
2023/07/06 06:49:37;;;;;;;;;;;;;;;23.42;74.14;96852.81;626869;226;67316;-59
2023/07/06 06:52:02;;;;;;;;;;;;;;;23.43;74.27;96845.55;626616;225;64876;-59
2023/07/06 06:54:31;;;;;;;;;;;;;;;23.41;74.31;96840.50;626861;226;65213;-61
2023/07/06 06:56:58;;;;;;;;;;;;;;;23.42;74.33;96843.97;626868;226;67223;-61
2023/07/06 06:59:27;;;;;;;;;;;;;;;23.42;74.37;96844.77;626945;226;64923;-62
2023/07/06 07:01:54;;;;;;;;;;;;;;;23.42;74.50;96841.29;626922;226;65064;-63
2023/07/06 07:04:22;;;;;;;;;;;;;;;23.43;74.44;96840.20;626067;226;67327;-61
2023/07/06 07:06:49;;;;;;;;;;;;;;;23.43;74.54;96843.66;622308;226;66910;-61
2023/07/06 07:09:17;;;;;;;;;;;;;;;23.44;74.51;96844.48;619716;229;65023;-61
2023/07/06 07:11:45;;;;;;;;;;;;;;;23.44;74.58;96844.48;619595;229;67143;-61
2023/07/06 07:14:15;;;;;;;;;;;;;;;23.43;74.52;96840.98;617684;227;67412;-61
2023/07/06 07:16:43;;;;;;;;;;;;;;;23.44;74.54;96839.13;617308;230;62998;-61
2023/07/06 07:19:10;;;;;;;;;;;;;;;23.44;74.54;96842.59;617395;230;65032;-61
2023/07/06 07:21:38;;;;;;;;;;;;;;;23.44;74.53;96849.85;617459;230;67152;-61
2023/07/06 07:24:06;;;;;;;;;;;;;;;23.45;74.60;96851.44;617518;229;65148;-61
2023/07/06 07:26:33;;;;;;;;;;;;;;;23.45;74.53;96851.44;617387;230;67107;-61
2023/07/06 07:29:02;;;;;;;;;;;;;;;23.46;74.53;96850.34;617483;230;66933;-61
2023/07/06 07:31:30;;;;;;;;;;;;;;;23.45;74.60;96852.22;617480;230;62822;-61
2023/07/06 07:33:58;;;;;;;;;;;;;;;23.45;74.56;96857.59;617418;230;65410;-60
2023/07/06 07:36:25;;;;;;;;;;;;;;;23.45;74.51;96852.22;617528;230;67015;-58
2023/07/06 07:38:56;;;;;;;;;;;;;;;23.45;74.54;96852.22;617403;230;62587;-59
2023/07/06 07:41:22;;;;;;;;;;;;;;;23.46;74.52;96847.66;618301;227;65246;-60
2023/07/06 07:43:51;;;;;;;;;;;;;;;23.47;74.53;96843.91;619074;225;66769;-59
2023/07/06 07:46:20;;;;;;;;;;;;;;;23.47;74.56;96849.27;617406;230;64968;-59
2023/07/06 07:48:49;;;;;;;;;;;;;;;23.47;74.53;96849.27;617371;230;67999;-64
2023/07/06 07:51:18;;;;;;;;;;;;;;;23.49;74.48;96847.10;617512;230;64908;-59
2023/07/06 07:53:45;;;;;;;;;;;;;;;23.47;74.47;96847.38;617484;230;63083;-60
2023/07/06 07:56:15;;;;;;;;;;;;;;;23.47;74.50;96838.54;617458;230;65000;-59
2023/07/06 07:58:45;;;;;;;;;;;;;;;23.47;74.49;96839.33;617379;230;67112;-59
2023/07/06 08:01:13;;;;;;;;;;;;;;;23.48;74.48;96846.28;617449;230;64874;-59
2023/07/06 08:03:41;;;;;;;;;;;;;;;23.48;74.42;96840.91;617485;230;65129;-59
2023/07/06 08:06:09;;;;;;;;;;;;;;;23.48;74.45;96842.80;617374;230;66927;-60
2023/07/06 08:08:38;;;;;;;;;;;;;;;23.49;74.42;96839.05;617384;230;62854;-60
2023/07/06 08:11:07;;;;;;;;;;;;;;;23.48;74.48;96834.76;617413;230;67377;-59
2023/07/06 08:13:35;;;;;;;;;;;;;;;23.49;74.47;96836.38;618808;229;64944;-58
2023/07/06 08:16:03;;;;;;;;;;;;;;;23.48;74.44;96835.55;619689;229;62958;-58
2023/07/06 08:18:34;;;;;;;;;;;;;;;23.49;74.44;96837.16;619769;228;43767;-60
2023/07/06 08:21:02;;;;;;;;;;;;;;;23.48;74.45;96830.19;619708;229;66542;-59
2023/07/06 08:23:29;;;;;;;;;;;;;;;23.49;74.47;96842.52;619669;229;64920;-59
2023/07/06 08:25:57;;;;;;;;;;;;;;;23.51;74.51;96844.11;619630;229;66787;-58
2023/07/06 08:28:29;;;;;;;;;;;;;;;23.48;74.45;96843.59;619681;229;67057;-58
2023/07/06 08:30:55;;;;;;;;;;;;;;;23.49;74.46;96841.73;619631;229;64967;-59
2023/07/06 08:33:23;;;;;;;;;;;;;;;23.50;74.41;96835.27;619695;229;66896;-59
2023/07/06 08:35:52;;;;;;;;;;;;;;;23.49;74.44;96839.84;619696;229;65367;-59
2023/07/06 08:38:19;;;;;;;;;;;;;;;23.50;74.43;96832.59;619622;229;62960;-59
2023/07/06 08:40:52;;;;;;;;;;;;;;;23.51;74.44;96823.44;619681;229;64642;-59
2023/07/06 08:43:21;;;;;;;;;;;;;;;23.50;74.43;96827.22;619765;229;64968;-59
2023/07/06 08:45:52;;;;;;;;;;;;;;;23.51;74.43;96834.17;619680;229;65045;-59
2023/07/06 08:48:25;;;;;;;;;;;;;;;23.51;74.45;96834.17;619679;229;66841;-59
2023/07/06 08:50:57;;;;;;;;;;;;;;;23.51;74.38;96839.53;619518;228;67146;-59
2023/07/06 08:53:30;;;;;;;;;;;;;;;23.51;74.38;96828.81;619638;229;64947;-59
2023/07/06 08:56:00;;;;;;;;;;;;;;;23.51;74.37;96839.53;619636;229;67495;-59
2023/07/06 08:58:34;;;;;;;;;;;;;;;23.52;74.46;96832.28;619602;229;67113;-59
2023/07/06 09:01:03;;;;;;;;;;;;;;;23.52;74.44;96840.33;619589;229;63826;-59
2023/07/06 09:03:33;;;;;;;;;;;;;;;23.51;74.40;96836.85;619591;228;67349;-58
2023/07/06 09:06:01;;;;;;;;;;;;;;;23.51;74.36;96836.85;619495;228;66990;-59
2023/07/06 09:08:29;;;;;;;;;;;;;;;23.51;74.38;96830.70;619750;229;64973;-59
2023/07/06 09:10:58;;;;;;;;;;;;;;;23.52;74.35;96841.15;619720;229;67064;-59
2023/07/06 09:13:27;;;;;;;;;;;;;;;23.52;74.31;96846.52;619629;229;67036;-59
2023/07/06 09:15:56;;;;;;;;;;;;;;;23.52;74.31;96838.47;619710;229;65101;-58
2023/07/06 09:18:24;;;;;;;;;;;;;;;23.53;74.29;96839.26;619599;229;67306;-59
2023/07/06 09:20:51;;;;;;;;;;;;;;;23.53;74.33;96833.89;619686;226;66911;-60
2023/07/06 09:23:19;;;;;;;;;;;;;;;23.52;74.35;96833.10;626846;226;64894;-59
2023/07/06 09:25:47;;;;;;;;;;;;;;;23.52;74.32;96835.78;626828;226;67017;-59
2023/07/06 09:28:16;;;;;;;;;;;;;;;23.54;74.35;96838.16;622688;226;68362;-59
2023/07/06 09:30:44;;;;;;;;;;;;;;;23.53;74.34;96840.05;626604;225;62907;-59
2023/07/06 09:33:24;;;;;;;;;;;;;;;23.54;74.29;96832.80;626836;226;67228;-59
2023/07/06 09:35:52;;;;;;;;;;;;;;;23.53;74.27;96833.89;626777;226;64447;-60
2023/07/06 09:38:20;;;;;;;;;;;;;;;23.55;74.28;96845.14;626838;226;63041;-59
2023/07/06 09:40:48;;;;;;;;;;;;;;;23.54;74.26;96838.16;626714;226;67421;-59
2023/07/06 09:43:29;;;;;;;;;;;;;;;23.54;74.23;96833.59;623671;226;67419;-59
2023/07/06 09:45:59;;;;;;;;;;;;;;;23.54;74.27;96838.95;623569;226;63070;-61
2023/07/06 09:48:36;;;;;;;;;;;;;;;23.55;74.32;96837.87;624978;226;65407;-61
2023/07/06 09:51:06;;;;;;;;;;;;;;;23.54;74.28;96841.63;626795;225;70786;-60
2023/07/06 09:53:34;;;;;;;;;;;;;;;23.55;74.25;96834.41;626280;226;65048;-60
2023/07/06 09:56:03;;;;;;;;;;;;;;;23.54;74.28;96841.63;626817;226;65054;-60
2023/07/06 09:58:30;;;;;;;;;;;;;;;23.55;74.25;96835.20;626890;226;67071;-59
2023/07/06 10:00:59;;;;;;;;;;;;;;;23.55;74.36;96834.41;626833;226;65165;-59
2023/07/06 10:03:41;;;;;;;;;;;;;;;23.55;74.31;96834.41;626557;225;66971;-58
2023/07/06 10:06:12;;;;;;;;;;;;;;;23.55;74.30;96821.78;626087;226;64867;-60
2023/07/06 10:08:40;;;;;;;;;;;;;;;23.55;74.29;96823.67;626352;225;64022;-60
2023/07/06 10:11:21;;;;;;;;;;;;;;;23.55;74.28;96818.31;626695;225;67260;-61
2023/07/06 10:13:49;;;;;;;;;;;;;;;23.55;74.34;96818.31;625932;225;65746;-60
2023/07/06 10:16:21;;;;;;;;;;;;;;;23.55;74.33;96812.95;626624;225;65033;-60
2023/07/06 10:18:51;;;;;;;;;;;;;;;23.54;74.36;96806.77;626819;226;64462;-60
2023/07/06 10:21:29;;;;;;;;;;;;;;;23.55;74.42;96802.22;626929;226;65145;-61
2023/07/06 10:24:05;;;;;;;;;;;;;;;23.54;74.38;96790.67;626714;225;65008;-61
2023/07/06 10:26:34;;;;;;;;;;;;;;;23.55;74.37;96802.22;626836;226;67293;-69
2023/07/06 10:29:04;;;;;;;;;;;;;;;23.55;74.37;96805.69;626833;226;67034;-61
2023/07/06 10:31:36;;;;;;;;;;;;;;;23.56;74.35;96809.16;626826;226;64824;-62
2023/07/06 10:34:08;;;;;;;;;;;;;;;23.56;74.30;96809.16;626822;225;64859;-60
2023/07/06 10:36:36;;;;;;;;;;;;;;;23.55;74.25;96811.06;626745;225;66989;-61
2023/07/06 10:39:21;;;;;;;;;;;;;;;23.56;74.28;96804.59;626783;226;63802;-61
2023/07/06 10:41:51;;;;;;;;;;;;;;;23.57;74.26;96800.84;626912;226;67057;-61
2023/07/06 10:44:40;;;;;;;;;;;;;;;23.57;74.22;96794.66;626676;225;64820;-61
2023/07/06 10:47:06;;;;;;;;;;;;;;;23.56;74.13;96799.23;626788;225;63169;-61
2023/07/06 10:49:35;;;;;;;;;;;;;;;23.57;74.13;96800.84;626770;226;67200;-61
2023/07/06 10:52:03;;;;;;;;;;;;;;;23.57;74.10;96798.16;626258;226;66794;-61
2023/07/06 10:54:32;;;;;;;;;;;;;;;23.58;74.08;96798.95;626855;226;62918;-61
2023/07/06 10:57:01;;;;;;;;;;;;;;;23.57;74.08;96792.80;626838;226;67257;-61
2023/07/06 10:59:33;;;;;;;;;;;;;;;23.58;74.02;96783.64;626840;226;67403;-61
2023/07/06 11:02:19;;;;;;;;;;;;;;;23.57;74.05;96779.38;626824;226;62846;-61
2023/07/06 11:04:48;;;;;;;;;;;;;;;23.59;73.91;96792.48;624971;226;64873;-61
2023/07/06 11:07:35;;;;;;;;;;;;;;;23.58;74.01;96780.17;618720;229;67216;-61
2023/07/06 11:10:12;;;;;;;;;;;;;;;23.59;73.96;96782.55;619715;229;65177;-61
2023/07/06 11:12:57;;;;;;;;;;;;;;;23.59;73.98;96787.12;619113;229;64998;-61
2023/07/06 11:15:32;;;;;;;;;;;;;;;23.58;73.95;96775.59;617487;230;67069;-61
2023/07/06 11:18:03;;;;;;;;;;;;;;;23.58;73.97;96775.59;617429;228;65242;-61
2023/07/06 11:20:31;;;;;;;;;;;;;;;23.58;74.17;96772.91;617407;228;64554;-62
2023/07/06 11:23:00;;;;;;;;;;;;;;;23.59;74.18;96771.02;617415;230;67039;-61
2023/07/06 11:25:29;;;;;;;;;;;;;;;23.59;74.18;96776.39;617434;230;65050;-62
2023/07/06 11:27:59;;;;;;;;;;;;;;;23.59;74.16;96769.13;617474;230;67682;-62
2023/07/06 11:30:31;;;;;;;;;;;;;;;23.58;74.06;96770.23;617281;228;67093;-64
2023/07/06 11:33:16;;;;;;;;;;;;;;;23.59;74.02;96771.81;617320;228;63758;-61
2023/07/06 11:35:48;;;;;;;;;;;;;;;23.60;74.05;96768.06;617419;230;67180;-62
2023/07/06 11:38:16;;;;;;;;;;;;;;;23.60;74.15;96775.29;617398;228;64783;-62
2023/07/06 11:40:46;;;;;;;;;;;;;;;23.60;74.14;96783.34;617216;228;62735;-62
2023/07/06 11:43:31;;;;;;;;;;;;;;;23.59;74.09;96781.75;608446;228;64968;-62
2023/07/06 11:46:03;;;;;;;;;;;;;;;23.60;74.14;96783.34;617533;228;47748;-61
2023/07/06 11:48:35;;;;;;;;;;;;;;;23.60;74.17;96783.34;617476;230;65168;-63
2023/07/06 11:51:03;;;;;;;;;;;;;;;23.60;74.13;96783.34;617238;228;64968;-62
2023/07/06 11:56:39;;;;;;;;;;;;;;;23.60;74.08;96781.47;615427;228;65172;-62
2023/07/06 11:58:53;;;;;;;;;;;;;;;23.60;74.13;96781.47;617046;230;67203;-62
2023/07/06 12:04:02;;;;;;;;;;;;;;;23.60;74.12;96786.84;614406;230;63859;-62
2023/07/06 12:06:33;;;;;;;;;;;;;;;23.60;74.14;96786.84;614516;230;67172;-62
2023/07/06 12:09:03;;;;;;;;;;;;;;;23.60;74.16;96792.20;615586;228;64395;-62
2023/07/06 12:11:31;;;;;;;;;;;;;;;23.61;74.16;96784.95;617396;230;64868;-62
2023/07/06 12:13:59;;;;;;;;;;;;;;;23.60;74.20;96786.84;617460;229;67189;-62
2023/07/06 12:16:28;;;;;;;;;;;;;;;23.61;74.17;96785.73;617389;230;65355;-62
2023/07/06 12:18:57;;;;;;;;;;;;;;;23.61;74.15;96793.00;617276;230;65045;-62
2023/07/06 12:21:29;;;;;;;;;;;;;;;23.61;74.17;96799.15;617401;230;67932;-61
2023/07/06 12:24:00;;;;;;;;;;;;;;;23.61;74.19;96801.83;617482;230;67146;-61
2023/07/06 12:26:29;;;;;;;;;;;;;;;23.62;74.22;96797.26;617242;230;65099;-61
2023/07/06 12:28:58;;;;;;;;;;;;;;;23.61;74.24;96799.15;617501;230;67182;-67
2023/07/06 12:31:27;;;;;;;;;;;;;;;23.62;74.19;96798.05;617271;228;66912;-61
2023/07/06 12:33:56;;;;;;;;;;;;;;;23.63;74.03;96802.34;617609;230;62673;-61
2023/07/06 12:36:28;;;;;;;;;;;;;;;23.63;73.97;96807.70;617286;228;64305;-61
2023/07/06 12:38:56;;;;;;;;;;;;;;;23.63;73.92;96805.03;617392;230;66837;-61
2023/07/06 12:41:24;;;;;;;;;;;;;;;23.64;74.01;96816.55;617509;230;63757;-61
2023/07/06 12:43:53;;;;;;;;;;;;;;;23.64;74.06;96820.02;617310;230;67353;-61
2023/07/06 12:46:22;;;;;;;;;;;;;;;23.65;74.19;96827.00;617486;230;64653;-61
2023/07/06 12:48:55;;;;;;;;;;;;;;;23.64;74.22;96829.96;617538;230;64885;-61
2023/07/06 12:51:24;;;;;;;;;;;;;;;23.64;74.27;96828.07;617521;230;66822;-62
2023/07/06 12:53:54;;;;;;;;;;;;;;;23.64;74.21;96828.07;617486;230;66848;-61
2023/07/06 12:56:23;;;;;;;;;;;;;;;23.63;74.27;96829.17;617137;230;64993;-61
2023/07/06 12:58:57;;;;;;;;;;;;;;;23.64;74.28;96828.07;617462;230;67202;-62
2023/07/06 13:01:38;;;;;;;;;;;;;;;23.64;74.28;96819.23;617434;230;67518;-62
2023/07/06 13:04:10;;;;;;;;;;;;;;;23.64;74.25;96828.07;617500;230;65173;-68
2023/07/06 13:06:42;;;;;;;;;;;;;;;23.67;73.36;96824.01;617549;230;64853;-69